Arcata Airport
KACV : now visible

Airfield :











YOU CAN JOIN US ON...

 
LOGIN :

Register | Disclaimer

   EN    FR    IT 

 









Legend :    VFR   Marginal VFR   IFR   Intensive IFR   Very Intensive IFR
Visi :
Ceiling :
>= 8 km
>= 3000ft
5 to 8 km
1000 to 3000 ft
1500m to 5 km
500 to 1000 ft
800 to 1500m
200 to 500 ft
< 800m
< 200 ft
Symbols :   Thunderstorms  Fog  Heavy snow  Heavy precipitations  Wind > 20 kt







- Airport Elevation : 221 ft
- IATA code : ACV


KACV - Arcata

CURRENT METAR :
  • 211653Z AUTO 00000KT 5SM HZ CLR 16/13 A3005 RMK AO2 SLP179 T01560128

EXPIRED METARs :
  • 211553Z AUTO 00000KT 10SM CLR 14/12 A3004 RMK AO2 SLP178 T01390122
  • 211453Z AUTO 00000KT 10SM CLR 11/10 A3004 RMK AO2 SLP178 T01060100 53000

TAF KACV
Valid from the 21 at 14:00 until the 22 at 12:00 UTC


211356Z 2114/2212 10003KT P6SM SKC
FM211500 13003KT P6SM FEW004
FM211900 33011KT P6SM SKC
FM220400 VRB03KT P6SM SCT010
FM220800 VRB02KT P6SM OVC008
No reported NOTAMs for that airfield.



MET'MAP, your aeronautical weather chart ! - Copyright ORBIFLY December 2007 - Disclaimer

ORBIFLY MET'MAP TEAM :

Programming & Development : Alexandra Zaïnal
Concept & Development : Baudouin d'Aumeries
Co-Development & Prog : Marc-Olivier Méhu
Technical & hardware support : Manuel Goepfert

Contact : metmap@orbifly.com




SOURCES & CREDITS :

   NOAA       Earth
Advisory